M I D A S
Marine Information and Data Acquisition System
Tripno 640 of the Zeeleeuw from 2004-02-02 07:23:31 to 2004-02-02 13:50:01
Back to CruiseResearch ActivitiesStationsMapUnderway DataData graphs

EquipmentUnitsComment
TimeDGPSUTC
LatitudeDGPSDM.mWGS84
LongitudeDGPSDM.mWGS84
HeadingGyrodeg 
SOGDGPSknotsSpeed over ground
COGDGPSdegCourse over ground
DepthEcho soundermeters200 kHz
Missing or incorrect values are displayed as -999
Navigation data collected by the RV Zeeleeuw from 2004-02-02 07:23:31 to 2004-02-02 13:50:01
                                                                                    Next 1000 lines
Time Latitude Longitude Heading SOG COG Depth
2004-02-02 07:23:39 51°13.595 2°56.109 117.1 0.1 218 8.6
2004-02-02 07:23:43 51°13.595 2°56.109 116.3 0.2 300 8.7
2004-02-02 07:23:48 51°13.596 2°56.108 116.1 0.4 299 8.6
2004-02-02 07:23:53 51°13.596 2°56.106 116.1 0.8 298 8.6
2004-02-02 07:23:58 51°13.597 2°56.103 116.5 1.1 296 8.6
2004-02-02 07:24:03 51°13.598 2°56.1 116.7 1.8 296 8.7
2004-02-02 07:24:09 51°13.6 2°56.095 116.8 2 295 -999
2004-02-02 07:24:14 51°13.601 2°56.09 116.6 2.3 295 -999
2004-02-02 07:24:19 51°13.602 2°56.085 116.6 2.5 295 -999
2004-02-02 07:24:24 51°13.604 2°56.08 117 2.7 295 -999
2004-02-02 07:24:29 51°13.606 2°56.074 117.7 2.8 296 -999
2004-02-02 07:24:33 51°13.607 2°56.069 118.3 3 298 -999
2004-02-02 07:24:39 51°13.61 2°56.061 118.4 3.2 298 -999
2004-02-02 07:24:44 51°13.612 2°56.055 118 3.4 298 -999
2004-02-02 07:24:49 51°13.614 2°56.048 117.2 3.5 297 -999
2004-02-02 07:24:53 51°13.616 2°56.042 116.3 3.6 296 -999
2004-02-02 07:24:59 51°13.618 2°56.033 115.4 3.6 295 11.1
2004-02-02 07:25:04 51°13.62 2°56.026 114.7 3.7 294 -999
2004-02-02 07:25:09 51°13.622 2°56.018 114.5 3.7 293 -999
2004-02-02 07:25:13 51°13.624 2°56.012 114.4 3.8 293 -999
2004-02-02 07:25:19 51°13.626 2°56.002 114.7 3.9 294 -999
2004-02-02 07:25:24 51°13.628 2°55.995 115.3 3.9 294 -999
2004-02-02 07:25:29 51°13.631 2°55.987 115.7 3.9 295 -999
2004-02-02 07:25:34 51°13.633 2°55.979 115.9 4 295 -999
2004-02-02 07:25:39 51°13.635 2°55.971 116.1 4 295 -999
2004-02-02 07:25:44 51°13.637 2°55.962 116.4 4.1 295 -999
2004-02-02 07:25:49 51°13.64 2°55.954 116.6 4.1 295 -999
2004-02-02 07:25:53 51°13.642 2°55.948 116.9 4.2 295 -999
2004-02-02 07:25:59 51°13.645 2°55.937 116.9 4.3 294 -999
2004-02-02 07:26:04 51°13.647 2°55.929 116.5 4.4 294 -999
2004-02-02 07:26:09 51°13.649 2°55.919 116 4.4 293 -999
2004-02-02 07:26:13 51°13.651 2°55.912 115.7 4.5 293 -999
2004-02-02 07:26:19 51°13.654 2°55.901 115.3 4.6 293 -999
2004-02-02 07:26:25 51°13.657 2°55.889 114.9 4.7 292 -999
2004-02-02 07:26:29 51°13.659 2°55.882 114.5 4.7 292 -999
2004-02-02 07:26:33 51°13.661 2°55.874 113.9 4.7 291 -999
2004-02-02 07:26:39 51°13.664 2°55.862 113.2 4.7 291 -999
2004-02-02 07:26:44 51°13.666 2°55.852 112.6 4.7 291 -999
2004-02-02 07:26:49 51°13.668 2°55.842 111.7 4.7 290 -999
2004-02-02 07:26:53 51°13.67 2°55.835 110.9 4.7 290 -999
2004-02-02 07:26:59 51°13.672 2°55.823 109.9 4.7 289 -999
2004-02-02 07:27:04 51°13.674 2°55.813 108.8 4.7 288 -999
2004-02-02 07:27:09 51°13.676 2°55.803 107.4 4.6 287 -999
2004-02-02 07:27:15 51°13.678 2°55.792 106 4.5 287 -999
2004-02-02 07:27:19 51°13.679 2°55.785 105.2 4.2 286 12.2
2004-02-02 07:27:24 51°13.68 2°55.778 103.7 3.6 285 12.8
2004-02-02 07:27:28 51°13.681 2°55.773 101.9 2.6 285 13.3
2004-02-02 07:27:33 51°13.682 2°55.77 98.5 1.6 289 14
2004-02-02 07:27:39 51°13.682 2°55.767 95.1 1 290 14.1
2004-02-02 07:27:43 51°13.683 2°55.767 90.2 0.5 344 14.2
2004-02-02 07:27:49 51°13.683 2°55.768 84.6 0.7 39 14.6
2004-02-02 07:27:53 51°13.685 2°55.77 77.6 1.1 45 14.8
2004-02-02 07:27:59 51°13.687 2°55.773 69.4 1.7 47 14.9
2004-02-02 07:28:03 51°13.689 2°55.776 60.3 2.5 37 14.7
2004-02-02 07:28:09 51°13.694 2°55.78 50.6 3 29 14.6
2004-02-02 07:28:13 51°13.697 2°55.782 39.8 3.6 18 14.3
2004-02-02 07:28:19 51°13.704 2°55.784 28.7 4 10 14.1
2004-02-02 07:28:23 51°13.709 2°55.784 17.7 4.4   14.2
2004-02-02 07:28:28 51°13.716 2°55.782 7 4.8 351 13.3
2004-02-02 07:28:33 51°13.723 2°55.778 356.3 5.3 339 12.5
2004-02-02 07:28:37 51°13.728 2°55.774 345.3 5.6 332 12.1
2004-02-02 07:28:44 51°13.737 2°55.763 334.5 5.7 322 11.3
2004-02-02 07:28:48 51°13.742 2°55.757 327.4 5.6 321 10.9
2004-02-02 07:28:53 51°13.748 2°55.749 324.2 5.5 318 10.9
2004-02-02 07:28:59 51°13.755 2°55.739 322.4 5.5 318 10.9
2004-02-02 07:29:03 51°13.759 2°55.732 321.2 5.6 316 11.2
2004-02-02 07:29:08 51°13.765 2°55.723 320.3 5.7 316 10.9
2004-02-02 07:29:13 51°13.771 2°55.714 319.8 5.9 315 11.1
2004-02-02 07:29:19 51°13.779 2°55.702 319.3 6.2 315 10.8
2004-02-02 07:29:23 51°13.785 2°55.694 319.4 6.4 316 11.1
2004-02-02 07:29:28 51°13.793 2°55.684 320.3 6.6 317 11
2004-02-02 07:29:33 51°13.801 2°55.675 321.5 6.7 318 11.1
2004-02-02 07:29:37 51°13.807 2°55.667 322.9 6.9 320 11.4
2004-02-02 07:29:43 51°13.815 2°55.655 324.4 7.1 322 12
2004-02-02 07:29:49 51°13.825 2°55.644 326 7.2 324 11.9
2004-02-02 07:29:53 51°13.831 2°55.637 327.7 7.3 325 12.1
2004-02-02 07:29:59 51°13.841 2°55.626 329.5 7.5 327 11.7
2004-02-02 07:30:03 51°13.848 2°55.62 332.1 7.6 331 11.4
2004-02-02 07:30:08 51°13.857 2°55.612 335.3 7.7 333 11.2
2004-02-02 07:30:13 51°13.867 2°55.604 337.8 7.7 334 11.7
2004-02-02 07:30:18 51°13.877 2°55.597 340 7.8 335 11.3
2004-02-02 07:30:23 51°13.887 2°55.59 340.8 7.9 335 11.3
2004-02-02 07:30:28 51°13.897 2°55.583 340.9 7.9 335 11.3
2004-02-02 07:30:33 51°13.907 2°55.575 340.8 8 335 11.3
2004-02-02 07:30:39 51°13.919 2°55.566 340.9 8 336 11.4
2004-02-02 07:30:43 51°13.927 2°55.56 341.5 8.1 336 11.4
2004-02-02 07:30:48 51°13.937 2°55.553 341.5 8.1 337 11.3
2004-02-02 07:30:53 51°13.947 2°55.546 341.5 8.1 336 11.4
2004-02-02 07:30:57 51°13.956 2°55.541 341.7 8.1 337 11.4
2004-02-02 07:31:03 51°13.968 2°55.532 341.8 8.2 337 11.4
2004-02-02 07:31:08 51°13.979 2°55.525 341.8 6.3 337 11.5
2004-02-02 07:31:13 51°13.989 2°55.518 341.8 8.1 336 11.1
2004-02-02 07:31:19 51°14.001 2°55.509 341.5 8.3 337 11
2004-02-02 07:31:23 51°14.009 2°55.503 341.5 8.2 336 10.9
2004-02-02 07:31:28 51°14.019 2°55.496 341.5 8.2 337 10.7
2004-02-02 07:31:33 51°14.03 2°55.488 341.3 8.3 336 10.8
2004-02-02 07:31:37 51°14.038 2°55.483 341.1 8.3 336 10.7
2004-02-02 07:31:44 51°14.053 2°55.472 340.8 8.4 335 10.6
2004-02-02 07:31:48 51°14.062 2°55.466 340.5 8.4 335 10.6
2004-02-02 07:31:53 51°14.072 2°55.458 340.5 8.3 336 10.5
2004-02-02 07:31:59 51°14.085 2°55.449 340.5 8.3 335 10.5
2004-02-02 07:32:03 51°14.093 2°55.443 340.3 8.1 335 10.6
2004-02-02 07:32:09 51°14.105 2°55.434 340 8 335 10.5
2004-02-02 07:32:13 51°14.114 2°55.428 340 7.8 335 10.5
2004-02-02 07:32:17 51°14.121 2°55.423 339.8 7.7 334 10.8
2004-02-02 07:32:24 51°14.135 2°55.412 339.6 7.5 334 10.7
2004-02-02 07:32:29 51°14.144 2°55.405 339.1 7.4 334 11.2
2004-02-02 07:32:33 51°14.151 2°55.399 338.9 7.3 333 11.1
2004-02-02 07:32:39 51°14.162 2°55.391 338.6 7.2 333 11.1
2004-02-02 07:32:43 51°14.169 2°55.385 337.9 7.1 331 11.6
2004-02-02 07:32:48 51°14.177 2°55.377 336.7 7 331 11.4
2004-02-02 07:32:53 51°14.185 2°55.369 335.3 6.9 330 11.3
2004-02-02 07:32:59 51°14.194 2°55.36 333.7 6.8 328 12.1
2004-02-02 07:33:03 51°14.2 2°55.353 332.3 6.7 326 11.5
2004-02-02 07:33:08 51°14.208 2°55.345 330.9 6.7 325 11.5
2004-02-02 07:33:13 51°14.216 2°55.336 329.5 6.6 324 11.6
2004-02-02 07:33:19 51°14.224 2°55.326 328.2 6.4 323 11.5
2004-02-02 07:33:23 51°14.229 2°55.32 327 6.2 322 11.5
2004-02-02 07:33:28 51°14.236 2°55.311 325.8 6 320 11.9
2004-02-02 07:33:33 51°14.242 2°55.303 324.5 5.9 319 11.5
2004-02-02 07:33:39 51°14.25 2°55.292 323.3 5.9 319 11.6
2004-02-02 07:33:43 51°14.254 2°55.285 322.2 6 317 11.5
2004-02-02 07:33:48 51°14.26 2°55.276 321.3 6 317 11.6
2004-02-02 07:33:53 51°14.265 2°55.266 320.1 6.3 315 12
2004-02-02 07:33:59 51°14.273 2°55.253 319.3 6.4 314 11.6
2004-02-02 07:34:03 51°14.278 2°55.244 318.3 6.7 313 11.7
2004-02-02 07:34:09 51°14.286 2°55.23 317.6 6.8 312 11.6
2004-02-02 07:34:13 51°14.291 2°55.221 317 7 312 11.6
2004-02-02 07:34:17 51°14.296 2°55.212 316 7.1 311 11.6
2004-02-02 07:34:23 51°14.304 2°55.197 315 7.2 310 11.6
2004-02-02 07:34:28 51°14.31 2°55.184 313.5 7.3 308 11.7
2004-02-02 07:34:33 51°14.317 2°55.171 311.5 7.4 307 11.7
2004-02-02 07:34:39 51°14.324 2°55.155 309.9 7.5 305 11.7
2004-02-02 07:34:43 51°14.328 2°55.143 308.5 7.6 304 11.6
2004-02-02 07:34:49 51°14.335 2°55.127 307.8 7.6 303 11.7
2004-02-02 07:34:53 51°14.34 2°55.115 307.7 7.7 304 11.8
2004-02-02 07:34:59 51°14.347 2°55.098 308.1 7.7 304 11.9
2004-02-02 07:35:03 51°14.352 2°55.087 309 7.7 305 11.7
2004-02-02 07:35:09 51°14.36 2°55.07 309.8 7.8 306 11.8
2004-02-02 07:35:13 51°14.365 2°55.059 310.6 7.8 307 11.9
2004-02-02 07:35:19 51°14.373 2°55.044 311.9 7.8 309 12.1
2004-02-02 07:35:23 51°14.379 2°55.034 313.7 7.8 312 12.3
2004-02-02 07:35:29 51°14.389 2°55.019 315.7 7.9 316 12.3
2004-02-02 07:35:33 51°14.395 2°55.01 317.9 7.9 319 12.3
2004-02-02 07:35:39 51°14.405 2°54.996 320.1 7.9 321 12.2
2004-02-02 07:35:43 51°14.412 2°54.988 322.3 7.9 324 12.2
2004-02-02 07:35:48 51°14.421 2°54.98 324.8 7.7 328 12.1
2004-02-02 07:35:53 51°14.429 2°54.972 327.4 7.2 330 12
2004-02-02 07:35:59 51°14.44 2°54.963 330.2 7.1 332 12.3
2004-02-02 07:36:03 51°14.446 2°54.959 332.9 6.8 336 12
2004-02-02 07:36:08 51°14.455 2°54.953 334.9 6.8 338 11.8
2004-02-02 07:36:13 51°14.464 2°54.948 337.5 6.9 340 11.8
2004-02-02 07:36:17 51°14.471 2°54.944 338.9 6.9 341 11.7
2004-02-02 07:36:24 51°14.484 2°54.938 340.2 7 343 11.6
2004-02-02 07:36:29 51°14.493 2°54.933 341.2 7 344 11.5
2004-02-02 07:36:33 51°14.501 2°54.93 342.2 7.1 345 11.4
2004-02-02 07:36:39 51°14.512 2°54.926 343.3 7.2 345 11.3
2004-02-02 07:36:43 51°14.52 2°54.923 344.1 7.2 346 11.4
2004-02-02 07:36:48 51°14.529 2°54.919 344.6 7.2 346 11.2
2004-02-02 07:36:53 51°14.539 2°54.916 345.5 7.2 348 11.1
2004-02-02 07:36:59 51°14.551 2°54.912 346.2 7.3 349 11.2
2004-02-02 07:37:03 51°14.559 2°54.91 346.6 7.3 348 11
2004-02-02 07:37:09 51°14.571 2°54.906 346.6 7.3 348 11.2
2004-02-02 07:37:13 51°14.579 2°54.903 346.1 7.3 348 11.1
2004-02-02 07:37:19 51°14.59 2°54.899 345.8 7.3 347 11.2
2004-02-02 07:37:23 51°14.598 2°54.896 344.8 7.3 346 11.2
2004-02-02 07:37:29 51°14.61 2°54.89 343.3 7.1 345 11.3
2004-02-02 07:37:33 51°14.617 2°54.887 340.6 7.1 341 11.3
2004-02-02 07:37:37 51°14.624 2°54.882 337.5 7 339 11.5
2004-02-02 07:37:43 51°14.635 2°54.875 334 6.9 336 11.3
2004-02-02 07:37:48 51°14.643 2°54.868 331.4 6.9 335 11.3
2004-02-02 07:37:53 51°14.652 2°54.861 329.9 6.8 334 11.3
2004-02-02 07:37:59 51°14.662 2°54.853 328.4 6.8 332 11.2
2004-02-02 07:38:03 51°14.668 2°54.847 327 6.7 331 11.3
2004-02-02 07:38:08 51°14.676 2°54.84 325.8 6.7 330 11
2004-02-02 07:38:13 51°14.684 2°54.832 325.4 6.7 329 11
2004-02-02 07:38:19 51°14.694 2°54.822 324.8 6.8 328 11.1
2004-02-02 07:38:23 51°14.701 2°54.816 324.1 7.1 327 11.1
2004-02-02 07:38:28 51°14.709 2°54.806 323.4 7.6 326 11
2004-02-02 07:38:33 51°14.719 2°54.797 324 8.3 328 11.1
2004-02-02 07:38:39 51°14.732 2°54.785 326.2 8.6 329 11.4
2004-02-02 07:38:43 51°14.741 2°54.777 328.7 9.2 331 11
2004-02-02 07:38:48 51°14.752 2°54.767 330.8 9.5 332 11
2004-02-02 07:38:53 51°14.765 2°54.756 331.6 9.9 332 11
2004-02-02 07:38:59 51°14.78 2°54.742 331.6 10.3 332 10.9
2004-02-02 07:39:03 51°14.791 2°54.733 330.7 10.8 330 11
2004-02-02 07:39:08 51°14.804 2°54.72 330.3 11.3 330 10.9
2004-02-02 07:39:13 51°14.818 2°54.707 330.3 11.7 329 11
2004-02-02 07:39:17 51°14.83 2°54.696 329.8 12.2 329 10.8
2004-02-02 07:39:23 51°14.847 2°54.678 329.6 12.5 329 11
2004-02-02 07:39:28 51°14.863 2°54.664 329.7 12.7 329 11.1
2004-02-02 07:39:33 51°14.878 2°54.648 329.8 13 328 10.8
2004-02-02 07:39:38 51°14.894 2°54.633 329.6 13.2 328 10.9
2004-02-02 07:39:43 51°14.91 2°54.617 329.9 13.4 328 10.7
2004-02-02 07:39:49 51°14.929 2°54.598 329.8 13.5 328 10.7
2004-02-02 07:39:53 51°14.941 2°54.585 329.4 13.5 328 10.6
2004-02-02 07:39:59 51°14.96 2°54.567 329.1 13.5 328 10.2
2004-02-02 07:40:03 51°14.973 2°54.554 329.5 13.5 328 10.3
2004-02-02 07:40:08 51°14.989 2°54.539 329.9 13.6 329 10.3
2004-02-02 07:40:13 51°15.005 2°54.523 330 13.5 329 9.9
2004-02-02 07:40:18 51°15.022 2°54.507 330.2 13.7 329 9.8
2004-02-02 07:40:24 51°15.042 2°54.488 330.5 13.7 330 9.8
2004-02-02 07:40:28 51°15.054 2°54.475 329.6 13.7 328 9.9
2004-02-02 07:40:33 51°15.071 2°54.459 329.5 13.7 327 10
2004-02-02 07:40:39 51°15.09 2°54.439 328.8 13.6 327 10.1
2004-02-02 07:40:43 51°15.102 2°54.426 328.6 13.7 326 10
2004-02-02 07:40:48 51°15.118 2°54.41 328.6 13.7 327 10
2004-02-02 07:40:53 51°15.134 2°54.393 328.9 13.9 328 10.1
2004-02-02 07:40:59 51°15.154 2°54.374 329.5 13.9 328 10.3
2004-02-02 07:41:03 51°15.167 2°54.36 329.9 13.9 328 10.4
2004-02-02 07:41:08 51°15.183 2°54.344 330.5 13.8 328 10.2
2004-02-02 07:41:13 51°15.2 2°54.329 330.5 13.8 329 10.2
2004-02-02 07:41:17 51°15.213 2°54.316 330.9 13.8 329 10.2
2004-02-02 07:41:24 51°15.236 2°54.294 330.9 13.9 329 10.4
2004-02-02 07:41:28 51°15.25 2°54.282 330.9 14 329 10.4
2004-02-02 07:41:33 51°15.266 2°54.265 331.2 13.9 328 10.5
2004-02-02 07:41:39 51°15.286 2°54.246 330.9 13.8 329 10.7
2004-02-02 07:41:43 51°15.299 2°54.233 330.3 13.7 328 10.6
2004-02-02 07:41:48 51°15.315 2°54.217 329.9 13.7 328 10.8
2004-02-02 07:41:53 51°15.331 2°54.202 330 13.8 329 10.9
2004-02-02 07:41:57 51°15.344 2°54.188 330.2 13.8 328 10.9
2004-02-02 07:42:04 51°15.367 2°54.166 330.9 13.9 328 10.9
2004-02-02 07:42:08 51°15.381 2°54.153 330.3 13.9 328 11.1
2004-02-02 07:42:13 51°15.397 2°54.137 330.2 13.9 329 11.1
2004-02-02 07:42:19 51°15.417 2°54.118 330.2 13.8 329 11.3
2004-02-02 07:42:23 51°15.43 2°54.105 330.5 13.7 329 11.3
2004-02-02 07:42:28 51°15.447 2°54.09 330.9 13.8 329 11.2
2004-02-02 07:42:33 51°15.463 2°54.074 331.2 13.8 329 11.4
2004-02-02 07:42:39 51°15.483 2°54.055 331.1 13.9 329 11.4
2004-02-02 07:42:43 51°15.496 2°54.042 331 13.8 328 11.6
2004-02-02 07:42:49 51°15.515 2°54.023 330.9 13.8 328 11.6
2004-02-02 07:42:53 51°15.528 2°54.011 330.8 13.8 329 11.8
2004-02-02 07:42:59 51°15.548 2°53.992 330.9 13.8 329 11.7
2004-02-02 07:43:04 51°15.565 2°53.976 331.1 13.8 329 11.8
2004-02-02 07:43:09 51°15.581 2°53.96 330.9 13.9 329 12
2004-02-02 07:43:13 51°15.595 2°53.947 330.7 13.9 328 11.9
2004-02-02 07:43:19 51°15.614 2°53.928 330.7 13.8 329 12
2004-02-02 07:43:23 51°15.627 2°53.915 330.8 13.7 328 12.2
2004-02-02 07:43:29 51°15.647 2°53.896 330.9 13.8 329 12.3
2004-02-02 07:43:33 51°15.66 2°53.884 331 13.8 329 12.2
2004-02-02 07:43:39 51°15.68 2°53.865 330.9 13.9 328 12.4
2004-02-02 07:43:43 51°15.693 2°53.852 330.9 13.9 329 12.3
2004-02-02 07:43:48 51°15.709 2°53.837 331.2 13.9 329 12.5
2004-02-02 07:43:53 51°15.726 2°53.821 331.4 13.9 330 12.5
2004-02-02 07:43:59 51°15.746 2°53.802 331.2 13.8 329 12.4
2004-02-02 07:44:03 51°15.759 2°53.79 331.6 13.9 329 12.8
2004-02-02 07:44:08 51°15.776 2°53.775 331.5 13.8 330 12.8
2004-02-02 07:44:13 51°15.793 2°53.759 331.7 13.9 331 12.9
2004-02-02 07:44:19 51°15.812 2°53.741 331.4 13.8 329 12.7
2004-02-02 07:44:23 51°15.825 2°53.728 331.6 13.9 329 12.8
2004-02-02 07:44:28 51°15.842 2°53.712 331.4 13.8 329 12.9
2004-02-02 07:44:33 51°15.859 2°53.698 331.5 13.8 330 12.9
2004-02-02 07:44:39 51°15.879 2°53.679 332 13.9 330 13
2004-02-02 07:44:43 51°15.893 2°53.667 331.6 13.7 330 13.1
2004-02-02 07:44:47 51°15.906 2°53.655 331.6 13.8 331 13.1
2004-02-02 07:44:53 51°15.926 2°53.637 331.5 13.8 330 13.1
2004-02-02 07:44:59 51°15.946 2°53.618 331.6 13.9 330 13.3
2004-02-02 07:45:03 51°15.959 2°53.606 331.3 13.8 329 13.1
2004-02-02 07:45:09 51°15.978 2°53.587 331 13.8 330 13.2
2004-02-02 07:45:13 51°15.991 2°53.575 330.9 13.8 329 13.3
2004-02-02 07:45:19 51°16.011 2°53.556 330.3 13.8 328 13.4
2004-02-02 07:45:24 51°16.026 2°53.54 330.3 13.7 328 13.3
2004-02-02 07:45:28 51°16.039 2°53.527 330.1 13.7 328 13.5
2004-02-02 07:45:33 51°16.056 2°53.51 329.8 13.8 327 13.5
2004-02-02 07:45:39 51°16.075 2°53.491 330.4 13.7 328 13.4
2004-02-02 07:45:44 51°16.091 2°53.476 330.7 13.7 329 13.5
2004-02-02 07:45:48 51°16.105 2°53.463 331.4 13.7 330 13.7
2004-02-02 07:45:53 51°16.121 2°53.448 331.4 13.7 330 13.5
2004-02-02 07:45:59 51°16.141 2°53.43 331.8 13.7 330 13.6
2004-02-02 07:46:03 51°16.155 2°53.417 331.6 13.8 329 13.3
2004-02-02 07:46:09 51°16.174 2°53.399 331.6 13.6 330 13.5
2004-02-02 07:46:13 51°16.188 2°53.386 331.5 13.7 329 13.7
2004-02-02 07:46:19 51°16.207 2°53.368 331.2 13.6 329 13.7
2004-02-02 07:46:23 51°16.22 2°53.355 331.4 13.6 330 13.7
2004-02-02 07:46:28 51°16.236 2°53.34 331.4 13.6 329 13.9
2004-02-02 07:46:33 51°16.253 2°53.325 331.1 13.6 330 13.8
2004-02-02 07:46:39 51°16.272 2°53.306 331.2 13.7 329 13.7
2004-02-02 07:46:43 51°16.285 2°53.295 331.2 13.6 330 13.8
2004-02-02 07:46:48 51°16.301 2°53.279 331.1 13.6 329 13.7
2004-02-02 07:46:53 51°16.318 2°53.264 331.1 13.5 330 14.1
2004-02-02 07:46:59 51°16.337 2°53.245 330.9 13.5 329 13.9
2004-02-02 07:47:03 51°16.35 2°53.233 330.9 13.6 329 13.9
2004-02-02 07:47:08 51°16.366 2°53.217 330.9 13.7 329 13.8
2004-02-02 07:47:13 51°16.383 2°53.202 331.2 13.7 330 13.8
2004-02-02 07:47:19 51°16.402 2°53.183 331.1 13.7 329 14
2004-02-02 07:47:23 51°16.415 2°53.171 331 13.6 329 13.8
2004-02-02 07:47:28 51°16.432 2°53.155 331.4 13.6 329 14
2004-02-02 07:47:33 51°16.448 2°53.14 331.7 13.6 330 13.9
2004-02-02 07:47:38 51°16.464 2°53.124 331.5 13.7 329 13.8
2004-02-02 07:47:43 51°16.48 2°53.109 331 13.6 329 13.8
2004-02-02 07:47:48 51°16.496 2°53.094 331 13.6 329 13.9
2004-02-02 07:47:53 51°16.513 2°53.078 331.1 13.6 329 13.7
2004-02-02 07:47:57 51°16.525 2°53.066 331.1 13.6 329 13.6
2004-02-02 07:48:04 51°16.548 2°53.044 331.3 13.5 330 13.3
2004-02-02 07:48:08 51°16.561 2°53.032 331.4 13.5 329 13.3
2004-02-02 07:48:13 51°16.577 2°53.017 331.4 13.6 329 13.3
2004-02-02 07:48:19 51°16.596 2°52.999 331.6 13.5 329 13.2
2004-02-02 07:48:23 51°16.61 2°52.987 331.9 13.6 330 13.3
2004-02-02 07:48:29 51°16.629 2°52.969 331.6 13.6 329 13.1
2004-02-02 07:48:33 51°16.641 2°52.957 331.8 13.5 330 13.1
2004-02-02 07:48:37 51°16.654 2°52.944 331.1 13.6 328 13
2004-02-02 07:48:43 51°16.674 2°52.926 331.3 13.6 330 13
2004-02-02 07:48:48 51°16.69 2°52.91 331.4 13.6 328 12.8
2004-02-02 07:48:53 51°16.706 2°52.895 331.4 13.6 329 12.6
2004-02-02 07:48:59 51°16.725 2°52.876 331.1 13.7 329 12.7
2004-02-02 07:49:03 51°16.739 2°52.864 331.3 13.6 331 12.4
2004-02-02 07:49:08 51°16.755 2°52.849 332.3 13.7 330 11.8
2004-02-02 07:49:13 51°16.771 2°52.835 332.8 13.6 330 11.3
2004-02-02 07:49:19 51°16.791 2°52.817 332.9 13.6 331 11.1
2004-02-02 07:49:23 51°16.804 2°52.806 332.9 13.4 332 10.9
2004-02-02 07:49:28 51°16.82 2°52.792 333.4 13.4 331 11
2004-02-02 07:49:33 51°16.836 2°52.778 333.4 13.4 331 11
2004-02-02 07:49:38 51°16.852 2°52.764 333.4 13.5 331 10.9
2004-02-02 07:49:43 51°16.869 2°52.749 333.1 13.5 330 11
2004-02-02 07:49:48 51°16.885 2°52.734 333.2 13.6 331 10.9
2004-02-02 07:49:53 51°16.902 2°52.719 333.1 13.6 330 10.9
2004-02-02 07:49:57 51°16.915 2°52.708 332.8 13.7 331 11.1
2004-02-02 07:50:03 51°16.935 2°52.69 332.9 13.6 331 11.2
2004-02-02 07:50:08 51°16.951 2°52.675 333 13.7 331 11.4
2004-02-02 07:50:13 51°16.968 2°52.661 333.5 13.7 331 11.5
2004-02-02 07:50:19 51°16.988 2°52.643 333.2 13.7 331 11.7
2004-02-02 07:50:23 51°17.002 2°52.631 333.2 13.8 331 11.8
2004-02-02 07:50:28 51°17.019 2°52.617 333 13.8 331 11.8
2004-02-02 07:50:33 51°17.036 2°52.602 333.2 13.7 332 11.2
2004-02-02 07:50:39 51°17.055 2°52.585 334 13.7 332 11.1
2004-02-02 07:50:43 51°17.069 2°52.575 334.6 13.6 334 11.1
2004-02-02 07:50:48 51°17.085 2°52.561 335.4 13.6 333 11.1
2004-02-02 07:50:53 51°17.102 2°52.549 336.7 13.7 335 11.3
2004-02-02 07:50:59 51°17.123 2°52.533 336.7 13.7 335 11.4
2004-02-02 07:51:03 51°17.137 2°52.523 337.4 13.8 335 11.4
2004-02-02 07:51:08 51°17.154 2°52.511 337.6 13.7 335 11.5
2004-02-02 07:51:13 51°17.172 2°52.499 338.4 13.7 337 11.3
2004-02-02 07:51:19 51°17.194 2°52.485 339.6 13.8 338 11.5
2004-02-02 07:51:24 51°17.212 2°52.475 340.9 13.9 340 11.6
2004-02-02 07:51:28 51°17.227 2°52.466 341.6 13.9 340 11.5
2004-02-02 07:51:33 51°17.245 2°52.457 343 13.8 341 11.5
2004-02-02 07:51:38 51°17.263 2°52.448 344.9 13.9 343 11.4
2004-02-02 07:51:43 51°17.282 2°52.44 345.6 13.9 344 11.5
2004-02-02 07:51:48 51°17.3 2°52.432 347 13.9 345 11.7
2004-02-02 07:51:53 51°17.319 2°52.424 347.4 13.9 344 11.9
2004-02-02 07:51:59 51°17.342 2°52.414 347.3 13.9 344 12
2004-02-02 07:52:03 51°17.357 2°52.408 347.9 14 345 12.1
2004-02-02 07:52:08 51°17.375 2°52.4 347.5 13.8 345 12.2
2004-02-02 07:52:13 51°17.394 2°52.393 349.2 14 348 12.1
2004-02-02 07:52:19 51°17.417 2°52.386 349.4 13.9 346 12
2004-02-02 07:52:23 51°17.433 2°52.381 351.7 13.9 348 12
2004-02-02 07:52:29 51°17.455 2°52.375 352.1 13.9 350 12.1
2004-02-02 07:52:33 51°17.471 2°52.37 352.8 14 349 12.1
2004-02-02 07:52:37 51°17.486 2°52.366 352.7 14 350 12.1
2004-02-02 07:52:44 51°17.513 2°52.358 352.7 14 349 12.1
2004-02-02 07:52:48 51°17.528 2°52.355 353.4 14.1 352 12.2
2004-02-02 07:52:53 51°17.547 2°52.35 353.7 14 351 12.2
2004-02-02 07:52:59 51°17.571 2°52.347 356.3 14.1 356 12.2
2004-02-02 07:53:03 51°17.586 2°52.342 356 14.1 353 12.1
2004-02-02 07:53:08 51°17.606 2°52.34 356.6 14.1 354 12
2004-02-02 07:53:13 51°17.625 2°52.337 356.7 14.1 354 12.1
2004-02-02 07:53:19 51°17.648 2°52.332 357.3 14 353 12
2004-02-02 07:53:23 51°17.663 2°52.33 357.2 14.1 355 11.9
2004-02-02 07:53:28 51°17.683 2°52.326 356.5 14 352 12
2004-02-02 07:53:33 51°17.702 2°52.324 357.3 14 356 12
2004-02-02 07:53:39 51°17.725 2°52.32 355.6 14 351 11.9
2004-02-02 07:53:44 51°17.745 2°52.315 357.4 14.1 353 12
2004-02-02 07:53:49 51°17.764 2°52.314 356.2 14 354 12.1
2004-02-02 07:53:53 51°17.779 2°52.309 356.5 14.1 351 12.1
2004-02-02 07:53:59 51°17.803 2°52.307 356.6 14.2 357 12.1
2004-02-02 07:54:03 51°17.818 2°52.302 355.9 14 351 11.9
2004-02-02 07:54:09 51°17.842 2°52.298 356.9 14.1 354 12
2004-02-02 07:54:13 51°17.857 2°52.295 355.5 14 355 12
2004-02-02 07:54:19 51°17.88 2°52.29 356.5 14.4 355 12.1
2004-02-02 07:54:24 51°17.9 2°52.288 356.5 14.1 354 12.2
2004-02-02 07:54:29 51°17.919 2°52.284 356.2 13.9 353 12.2
2004-02-02 07:54:33 51°17.934 2°52.282 356.8 14.1 355 12.3
2004-02-02 07:54:39 51°17.957 2°52.278 357 14 354 12.2
2004-02-02 07:54:43 51°17.973 2°52.276 357.7 14.1 355 12.2
2004-02-02 07:54:48 51°17.992 2°52.274 358.1 14 355 12.3
2004-02-02 07:54:53 51°18.012 2°52.273 359.4 14.2 359 12.2
2004-02-02 07:54:59 51°18.035 2°52.272   14.2 356 12.3
2004-02-02 07:55:03 51°18.051 2°52.272 2.7 14.2 1 12.3
2004-02-02 07:55:09 51°18.074 2°52.272 2.7 14.1   12.3
2004-02-02 07:55:13 51°18.09 2°52.276 5 14.1 5 12.4
2004-02-02 07:55:19 51°18.113 2°52.281 9.2 14.3 8 12.3
2004-02-02 07:55:23 51°18.128 2°52.287 13.4 14.1 14 12.3
2004-02-02 07:55:28 51°18.147 2°52.296 17.3 14.1 14 12.4
2004-02-02 07:55:33 51°18.166 2°52.307 22.5 14.5 19 12.4
2004-02-02 07:55:39 51°18.188 2°52.323 24.8 14.4 18 12.5
2004-02-02 07:55:43 51°18.202 2°52.333 27.7 14.1 25 12.5
2004-02-02 07:55:48 51°18.22 2°52.349 30.2 14.3 28 12.6
2004-02-02 07:55:53 51°18.237 2°52.363 30.5 14.3 28 12.7
2004-02-02 07:55:59 51°18.256 2°52.386 35.5 14.4 35 12.7
2004-02-02 07:56:03 51°18.27 2°52.4 39 14.3 36 12.6
2004-02-02 07:56:08 51°18.285 2°52.422 43.1 14.6 41 12.7
2004-02-02 07:56:13 51°18.301 2°52.442 43 14.8 37 12.7
2004-02-02 07:56:18 51°18.315 2°52.464 45.7 14.5 44 12.8
2004-02-02 07:56:23 51°18.329 2°52.486 48.3 14.4 44 12.8
2004-02-02 07:56:28 51°18.343 2°52.509 49.4 14.5 46 12.9
2004-02-02 07:56:33 51°18.358 2°52.533 50.8 14.6 46 12.9
2004-02-02 07:56:39 51°18.375 2°52.56 50 14.8 45 12.8
2004-02-02 07:56:43 51°18.387 2°52.58 50.1 14.8 47 12.8
2004-02-02 07:56:48 51°18.4 2°52.605 51.9 14.9 48 12.8
2004-02-02 07:56:53 51°18.413 2°52.63 53.7 14.9 50 12.8
2004-02-02 07:56:59 51°18.429 2°52.66 55.5 14.8 50 12.8
2004-02-02 07:57:03 51°18.439 2°52.681 55.8 14.7 51 12.9
2004-02-02 07:57:08 51°18.452 2°52.705 54.8 14.5 50 12.9
2004-02-02 07:57:13 51°18.463 2°52.731 57.7 14.6 55 12.9
2004-02-02 07:57:19 51°18.479 2°52.763 57.4 14.8 51 12.9
2004-02-02 07:57:23 51°18.489 2°52.783 56.7 14.9 49 13
2004-02-02 07:57:28 51°18.502 2°52.809 55.8 14.8 52 13
2004-02-02 07:57:33 51°18.516 2°52.832 53.5 14.6 48 13
2004-02-02 07:57:37 51°18.526 2°52.852 54.7 14.3 50 13
2004-02-02 07:57:44 51°18.544 2°52.888 56.6 14.3 52 12.8
2004-02-02 07:57:48 51°18.555 2°52.908 54.2 15.5 48 12.8
2004-02-02 07:57:53 51°18.569 2°52.934 53.7 15.2 52 12.9
2004-02-02 07:57:59 51°18.585 2°52.964 54.3 15.1 52 12.9
2004-02-02 07:58:03 51°18.595 2°52.984 54.2 14.7 52 13.1
2004-02-02 07:58:08 51°18.608 2°53.01 55.6 14.4 52 13.1
2004-02-02 07:58:13 51°18.619 2°53.037 59.9 14.8 57 13
2004-02-02 07:58:18 51°18.633 2°53.064 58.1 15.3 52 13.1
2004-02-02 07:58:23 51°18.646 2°53.09 55.8 15.1 49 13.1
2004-02-02 07:58:28 51°18.66 2°53.113 52.3 14.7 47 13.1
2004-02-02 07:58:33 51°18.673 2°53.137 52.6 14.4 50 13.2
2004-02-02 07:58:37 51°18.683 2°53.157 54.7 14.3 52 13.1
2004-02-02 07:58:43 51°18.698 2°53.187 56.6 14.8 51 13.2
2004-02-02 07:58:48 51°18.711 2°53.213 56.1 14.8 51 13.2
2004-02-02 07:58:53 51°18.724 2°53.239 56.6 14.9 53 13.1
2004-02-02 07:58:57 51°18.734 2°53.259 55.7 14.7 51 13.3
2004-02-02 07:59:04 51°18.751 2°53.295 56.6 14.3 52 13.3
2004-02-02 07:59:08 51°18.761 2°53.316 57.9 14.7 53 13.1
2004-02-02 07:59:13 51°18.774 2°53.342 56.3 15.1 50 13.1
2004-02-02 07:59:19 51°18.789 2°53.372 55.4 15 50 13.3
2004-02-02 07:59:23 51°18.799 2°53.393 57 14.5 53 13.2
2004-02-02 07:59:29 51°18.814 2°53.426 58.9 15.2 55 13.2
2004-02-02 07:59:33 51°18.825 2°53.445 55.5 15.1 50 13.3
2004-02-02 07:59:39 51°18.838 2°53.477 56.8 14.4 56 13.4
2004-02-02 07:59:43 51°18.849 2°53.496 58 14.3 52 13.3
2004-02-02 07:59:48 51°18.86 2°53.523 57.5 14.9 55 13.3
2004-02-02 07:59:53 51°18.874 2°53.549 57 14.9 55 13.3
2004-02-02 07:59:59 51°18.888 2°53.581 57 15 55 13.3
2004-02-02 08:00:03 51°18.899 2°53.602 58.1 15.2 50 13.3
2004-02-02 08:00:09 51°18.915 2°53.634 55.7 15.1 51 13.4
2004-02-02 08:00:13 51°18.925 2°53.654 56.8 14.9 53 13.3
2004-02-02 08:00:18 51°18.937 2°53.681 58 14.8 53 13.4
2004-02-02 08:00:23 51°18.949 2°53.707 58.9 15 53 13.4
2004-02-02 08:00:28 51°18.963 2°53.733 56.6 15.3 51 13.4
2004-02-02 08:00:33 51°18.976 2°53.759 55.1 15.2 51 13.5
2004-02-02 08:00:39 51°18.991 2°53.791 55.8 15.2 51 13.5
2004-02-02 08:00:43 51°19.002 2°53.812 56.5 15.1 52 13.6
2004-02-02 08:00:49 51°19.017 2°53.844 57.4 15.1 52 13.5
2004-02-02 08:00:53 51°19.027 2°53.864 57.3 14.8 51 13.6
2004-02-02 08:00:59 51°19.043 2°53.894 56.1 14.8 51 13.6
2004-02-02 08:01:04 51°19.055 2°53.92 56.2 14.8 52 13.6
2004-02-02 08:01:08 51°19.066 2°53.941 56.3 15 52 13.5
2004-02-02 08:01:14 51°19.082 2°53.971 55.5 14.8 50 13.6
2004-02-02 08:01:19 51°19.094 2°53.998 56.6 14.8 54 13.5
2004-02-02 08:01:24 51°19.108 2°54.023 56.4 15.1 48 13.4
2004-02-02 08:01:28 51°19.117 2°54.045 55.1 14.9 53 13.5
2004-02-02 08:01:33 51°19.129 2°54.071 59.2 14.9 56 13.5
2004-02-02 08:01:39 51°19.144 2°54.104 58.2 15 51 13.6
2004-02-02 08:01:43 51°19.154 2°54.123 58.4 14.5 52 13.6
2004-02-02 08:01:49 51°19.167 2°54.156 59.7 14.8 57 13.6
2004-02-02 08:01:53 51°19.178 2°54.176 58.2 14.8 51 13.7
2004-02-02 08:01:59 51°19.192 2°54.208 57.6 14.6 55 13.6
2004-02-02 08:02:03 51°19.202 2°54.229 58.8 15 55 13.6
2004-02-02 08:02:08 51°19.214 2°54.257 59.9 15.1 56 13.6
2004-02-02 08:02:13 51°19.225 2°54.284 60.7 14.7 56 13.7
2004-02-02 08:02:19 51°19.239 2°54.316 61.5 14.7 57 13.7
2004-02-02 08:02:23 51°19.249 2°54.337 59.3 14.9 54 13.6
2004-02-02 08:02:29 51°19.265 2°54.367 57.1 14.7 51 13.6
2004-02-02 08:02:33 51°19.273 2°54.389 58.2 14.7 56 13.5
2004-02-02 08:02:39 51°19.288 2°54.421 59.1 14.9 54 13.7
2004-02-02 08:02:44 51°19.299 2°54.447 59.1 14.5 56 13.7
2004-02-02 08:02:48 51°19.308 2°54.469 61.3 14.5 57 13.7
2004-02-02 08:02:53 51°19.32 2°54.496 60.5 14.7 54 13.5
2004-02-02 08:02:59 51°19.335 2°54.527 58.1 15 53 13.5
2004-02-02 08:03:04 51°19.347 2°54.554 57.2 14.9 54 13.6
2004-02-02 08:03:09 51°19.36 2°54.581 59.6 14.9 56 13.7
2004-02-02 08:03:14 51°19.371 2°54.608 58.7 14.7 55 14.2
2004-02-02 08:03:17 51°19.378 2°54.624 60.7 14.7 57 13.8
2004-02-02 08:03:24 51°19.394 2°54.662 60.9 14.9 55 13.8
2004-02-02 08:03:29 51°19.407 2°54.688 60.2 14.9 55 13.8
2004-02-02 08:03:34 51°19.419 2°54.715 59 14.9 53 13.7
2004-02-02 08:03:39 51°19.431 2°54.742 58.2 15 54 13.7
2004-02-02 08:03:44 51°19.444 2°54.768 58.8 14.9 52 13.8
2004-02-02 08:03:49 51°19.455 2°54.796 57.9 14.9 52 13.7
2004-02-02 08:03:53 51°19.465 2°54.816 58.7 15.1 55 13.8
2004-02-02 08:03:59 51°19.479 2°54.849 58.1 15 52 13.8
2004-02-02 08:04:03 51°19.489 2°54.87 60.2 14.6 56 13.7
2004-02-02 08:04:08 51°19.501 2°54.898 60.3 15.2 55 13.8
2004-02-02 08:04:13 51°19.513 2°54.925 59.8 15.1 55 13.8
2004-02-02 08:04:19 51°19.527 2°54.956 60.2 14.3 55 14
2004-02-02 08:04:23 51°19.535 2°54.978 61.2 14.4 58 14
2004-02-02 08:04:28 51°19.548 2°55.005 61.1 15 55 13.8
2004-02-02 08:04:33 51°19.56 2°55.032 58.7 15.1 53 13.9
2004-02-02 08:04:39 51°19.574 2°55.065 59.8 14.9 55 13.7
2004-02-02 08:04:43 51°19.584 2°55.086 59.6 14.8 54 13.9
2004-02-02 08:04:49 51°19.598 2°55.118 59.5 14.8 54 13.8
2004-02-02 08:04:53 51°19.608 2°55.14 60.2 15 53 13.9
2004-02-02 08:04:59 51°19.623 2°55.17 57.5 14.6 52 13.9
2004-02-02 08:05:04 51°19.634 2°55.197 56.7 14.4 55 13.9
2004-02-02 08:05:08 51°19.644 2°55.218 60 14.7 56 13.8
2004-02-02 08:05:13 51°19.656 2°55.244 58.2 14.7 54 13.8
2004-02-02 08:05:19 51°19.67 2°55.277 60.2 14.8 57 13.9
2004-02-02 08:05:24 51°19.683 2°55.303 58.2 15.2 52 13.7
2004-02-02 08:05:29 51°19.695 2°55.33 57.2 15 54 13.8
2004-02-02 08:05:33 51°19.705 2°55.352 58.7 14.7 54 13.9
2004-02-02 08:05:39 51°19.718 2°55.384 60.7 14.6 56 13.9
2004-02-02 08:05:43 51°19.728 2°55.405 59.6 14.6 54 13.9
2004-02-02 08:05:48 51°19.739 2°55.431 59.1 14.6 55 14
2004-02-02 08:05:53 51°19.751 2°55.459 59.6 14.9 55 13.8
2004-02-02 08:05:59 51°19.766 2°55.492 59.7 15.2 56 13.8
2004-02-02 08:06:03 51°19.775 2°55.514 59.1 15 56 13.8
2004-02-02 08:06:08 51°19.788 2°55.539 57.4 14.7 51 13.8
2004-02-02 08:06:13 51°19.798 2°55.567 60 14.5 58 13.9
2004-02-02 08:06:19 51°19.812 2°55.599 62 14.7 58 14
2004-02-02 08:06:23 51°19.821 2°55.621 60 14.5 57 14.1
2004-02-02 08:06:29 51°19.834 2°55.654 62.1 14.5 57 13.9
2004-02-02 08:06:33 51°19.844 2°55.677 61.3 15.4 57 13.8
2004-02-02 08:06:39 51°19.86 2°55.707 56 15.5 51 13.9
2004-02-02 08:06:43 51°19.868 2°55.729 58.6 14.2 59 13.9
2004-02-02 08:06:48 51°19.88 2°55.756 62.3 14.6 56 13.9
2004-02-02 08:06:53 51°19.892 2°55.784 60.9 15.5 55 13.8
2004-02-02 08:06:59 51°19.906 2°55.816 58.7 15.4 55 14
2004-02-02 08:07:04 51°19.917 2°55.843 59.1 14.3 57 14
2004-02-02 08:07:09 51°19.928 2°55.87 61 14.5 57 14
2004-02-02 08:07:13 51°19.938 2°55.891 59.5 14.9 54 14
2004-02-02 08:07:19 51°19.953 2°55.922 58.1 15 54 14
2004-02-02 08:07:23 51°19.962 2°55.944 57.9 14.8 57 14
2004-02-02 08:07:28 51°19.974 2°55.972 59.9 15.3 55 13.8
2004-02-02 08:07:33 51°19.987 2°55.999 57.7 15.5 53 14
2004-02-02 08:07:37 51°19.997 2°56.02 58.5 14.9 54 14.1
2004-02-02 08:07:43 51°20.01 2°56.053 60.7 14.9 57 14
2004-02-02 08:07:49 51°20.024 2°56.085 60.1 15 55 14
2004-02-02 08:07:53 51°20.033 2°56.108 60.9 14.7 58 14
2004-02-02 08:07:57 51°20.042 2°56.13 61.8 15.1 56 13.9
2004-02-02 08:08:04 51°20.06 2°56.168 58.7 15.2 53 13.9
2004-02-02 08:08:09 51°20.071 2°56.195 57.9 14.7 56 14
2004-02-02 08:08:13 51°20.08 2°56.217 61.4 14.9 57 13.9
2004-02-02 08:08:19 51°20.094 2°56.251 61.3 15.4 56 13.9
2004-02-02 08:08:24 51°20.107 2°56.277 60.2 15.1 54 14
2004-02-02 08:08:29 51°20.118 2°56.304 59 14.7 55 14.1
2004-02-02 08:08:33 51°20.128 2°56.325 58.7 14.6 55 14.1
2004-02-02 08:08:39 51°20.142 2°56.358 59.8 14.8 56 13.9
2004-02-02 08:08:43 51°20.152 2°56.381 60 15.5 55 13.8
2004-02-02 08:08:48 51°20.165 2°56.409 58.6 15.7 54 13.9
2004-02-02 08:08:53 51°20.177 2°56.437 58.7 15.4 54 14
2004-02-02 08:08:59 51°20.191 2°56.469 59.9 15 56 14
2004-02-02 08:09:03 51°20.2 2°56.49 59.9 14.8 55 14
2004-02-02 08:09:08 51°20.212 2°56.518 59.8 15 55 13.9
2004-02-02 08:09:13 51°20.224 2°56.545 58.7 15.1 54 13.9
2004-02-02 08:09:19 51°20.238 2°56.578 58.2 15.2 54 14
2004-02-02 08:09:23 51°20.248 2°56.6 58.7 15 55 13.9
2004-02-02 08:09:29 51°20.262 2°56.634 60.7 15 57 14
2004-02-02 08:09:33 51°20.271 2°56.655 60.7 15 57 14
2004-02-02 08:09:39 51°20.284 2°56.689 62.4 15 57 13.9
2004-02-02 08:09:43 51°20.294 2°56.711 61.5 15.3 55 13.9
2004-02-02 08:09:48 51°20.306 2°56.739 59.6 15.4 56 13.9
2004-02-02 08:09:53 51°20.317 2°56.767 59.6 15.2 55 14
2004-02-02 08:09:59 51°20.331 2°56.8 59.5 14.9 54 14.1
2004-02-02 08:10:03 51°20.339 2°56.822 63.3 14.6 59 14
2004-02-02 08:10:09 51°20.352 2°56.856 63 14.9 57 14
2004-02-02 08:10:13 51°20.362 2°56.878 61.6 14.9 57 13.9
2004-02-02 08:10:19 51°20.375 2°56.911 61.3 15 57 14
2004-02-02 08:10:23 51°20.384 2°56.934 61.7 15 57 13.9
2004-02-02 08:10:29 51°20.398 2°56.967 61.5 14.9 57 13.9
2004-02-02 08:10:33 51°20.407 2°56.989 61.5 15.1 58 13.9
2004-02-02 08:10:39 51°20.42 2°57.023 61.5 15.1 57 14
2004-02-02 08:10:44 51°20.43 2°57.052 63.9 15.1 60 14
2004-02-02 08:10:48 51°20.439 2°57.075 64.1 15.1 58 14
2004-02-02 08:10:53 51°20.449 2°57.104 63.7 15 60 13.9
2004-02-02 08:10:59 51°20.462 2°57.138 64.1 14.9 59 13.8
2004-02-02 08:11:03 51°20.47 2°57.162 65.9 15.1 62 13.9
2004-02-02 08:11:09 51°20.481 2°57.197 67.2 15.2 63 13.8
2004-02-02 08:11:13 51°20.49 2°57.22 66.3 15 60 13.9
2004-02-02 08:11:19 51°20.5 2°57.256 67 14.9 62 13.9
2004-02-02 08:11:23 51°20.508 2°57.279 67.7 14.9 63 13.9
2004-02-02 08:11:28 51°20.517 2°57.309 67.7 15.1 64 13.8
2004-02-02 08:11:33 51°20.526 2°57.339 68.4 15.2 64 13.8
2004-02-02 08:11:39 51°20.537 2°57.375 68.4 15 64 13.8
2004-02-02 08:11:43 51°20.544 2°57.399 69 15 65 13.8
2004-02-02 08:11:48 51°20.553 2°57.428 68.4 14.7 63 13.9
2004-02-02 08:11:53 51°20.562 2°57.457 69 14.7 63 13.9
2004-02-02 08:11:59 51°20.573 2°57.492 68.4 14.9 62 13.8
2004-02-02 08:12:03 51°20.58 2°57.516 67.4 14.9 63 13.8
2004-02-02 08:12:08 51°20.59 2°57.545 67.3 14.7 63 13.8
2004-02-02 08:12:13 51°20.598 2°57.575 69.5 14.8 65 13.7
2004-02-02 08:12:19 51°20.61 2°57.611 68.7 15.2 62 13.7
2004-02-02 08:12:24 51°20.62 2°57.64 66.3 14.8 63 13.7
2004-02-02 08:12:29 51°20.629 2°57.669 67.8 14.8 63 13.7
2004-02-02 08:12:33 51°20.638 2°57.692 65.6 15 60 13.8
2004-02-02 08:12:39 51°20.649 2°57.727 65.7 14.9 62 13.8
2004-02-02 08:12:44 51°20.658 2°57.756 66.7 14.8 62 13.7
2004-02-02 08:12:49 51°20.668 2°57.786 67.2 14.8 62 13.7
2004-02-02 08:12:53 51°20.675 2°57.81 68.1 15.4 64 13.6
2004-02-02 08:12:59 51°20.687 2°57.845 65.3 14.9 63 13.7
2004-02-02 08:13:03 51°20.693 2°57.868 68 14.4 65 13.7
2004-02-02 08:13:08 51°20.703 2°57.897 69.1 14.7 63 13.6
2004-02-02 08:13:13 51°20.713 2°57.927 67.5 15.2 63 13.5
2004-02-02 08:13:19 51°20.725 2°57.963 67.5 15.2 62 13.6
2004-02-02 08:13:24 51°20.734 2°57.992 67 14.8 63 13.6
2004-02-02 08:13:29 51°20.744 2°58.022 67.4 14.8 63 13.5
2004-02-02 08:13:33 51°20.752 2°58.046 66.8 15.3 61 13.5
2004-02-02 08:13:39 51°20.763 2°58.081 66.1 15.2 61 13.6
2004-02-02 08:13:44 51°20.773 2°58.109 67.3 14.6 61 13.6
2004-02-02 08:13:48 51°20.783 2°58.131 65 14.8 57 13.5
2004-02-02 08:13:53 51°20.796 2°58.157 58 15 52 13.5
2004-02-02 08:13:59 51°20.814 2°58.185 54.2 15 47 13.5
2004-02-02 08:14:04 51°20.829 2°58.205 47.7 14.4 40 13.5
2004-02-02 08:14:09 51°20.845 2°58.226 45.2 14.4 41 13.5
2004-02-02 08:14:13 51°20.859 2°58.24 39.9 14.7 34 13.6
2004-02-02 08:14:19 51°20.879 2°58.26 36.1 14.6 32 13.5
2004-02-02 08:14:23 51°20.892 2°58.275 35.6 14.6 35 13.4
2004-02-02 08:14:29 51°20.913 2°58.293 35.6 14.7 29 13.6
2004-02-02 08:14:34 51°20.931 2°58.311 32.7 14.7 30 13.6
2004-02-02 08:14:39 51°20.949 2°58.324 32 14.6 27 13.5
2004-02-02 08:14:44 51°20.967 2°58.34 29.5 14.5 29 13.7
2004-02-02 08:14:48 51°20.982 2°58.352 30.7 14.5 29 13.6
2004-02-02 08:14:53 51°21 2°58.365 28.8 14.5 24 13.6
2004-02-02 08:14:59 51°21.021 2°58.384 29.3 14.7 28 13.7
2004-02-02 08:15:03 51°21.036 2°58.395 29 14.5 29 13.6
2004-02-02 08:15:09 51°21.057 2°58.413 31.2 14.4 28 13.7
2004-02-02 08:15:13 51°21.071 2°58.426 29.7 14.5 26 13.7
2004-02-02 08:15:19 51°21.093 2°58.442 31.2 14.9 33 13.7
2004-02-02 08:15:23 51°21.107 2°58.455 28 14.4 31 13.8
2004-02-02 08:15:28 51°21.125 2°58.471 30.8 14.5 29 13.7
2004-02-02 08:15:33 51°21.143 2°58.484 28.9 14.5 25 13.7
2004-02-02 08:15:39 51°21.164 2°58.502 29.9 14.6 28 13.8
2004-02-02 08:15:43 51°21.179 2°58.515 29.8 14.8 28 13.8
2004-02-02 08:15:49 51°21.2 2°58.533 28.4 14.5 27 13.8
2004-02-02 08:15:53 51°21.215 2°58.544 30.7 14.5 30 13.8
2004-02-02 08:15:57 51°21.229 2°58.556 29.6 14.6 25 13.8
2004-02-02 08:16:03 51°21.251 2°58.573 28.9 14.5 26 13.9
2004-02-02 08:16:09 51°21.271 2°58.594 30.3 14.5 26 13.8
2004-02-02 08:16:13 51°21.285 2°58.606 33 14.6 29 13.9
2004-02-02 08:16:19 51°21.306 2°58.628 32.9 14.7 31 13.8
2004-02-02 08:16:23 51°21.32 2°58.641 33.5 14.7 30 13.9
2004-02-02 08:16:29 51°21.34 2°58.664 33.9 14.6 35 14
2004-02-02 08:16:33 51°21.353 2°58.68 38.1 14.9 39 13.8
2004-02-02 08:16:39 51°21.372 2°58.706 42 15.2 41 13.8
2004-02-02 08:16:44 51°21.387 2°58.728 41.2 14.9 37 13.7
2004-02-02 08:16:49 51°21.402 2°58.752 46.7 15.1 47 13.7
2004-02-02 08:16:53 51°21.414 2°58.77 46.3 14.8 45 13.8
2004-02-02 08:16:59 51°21.429 2°58.801 50.7 14.6 52 13.8
2004-02-02 08:17:03 51°21.441 2°58.82 52.2 15.1 46 13.8
2004-02-02 08:17:08 51°21.454 2°58.845 48.6 14.6 48 13.9
2004-02-02 08:17:13 51°21.466 2°58.87 54.4 14.4 53 13.9
2004-02-02 08:17:19 51°21.483 2°58.9 52.8 14.4 53 13.8
2004-02-02 08:17:23 51°21.493 2°58.921 51.3 14.8 53 13.9
2004-02-02 08:17:28 51°21.504 2°58.95 57.8 14.8 59 13.9
2004-02-02 08:17:33 51°21.515 2°58.978 61.4 14.9 58 13.8
2004-02-02 08:17:39 51°21.526 2°59.014 64.3 15.1 63 13.9
2004-02-02 08:17:43 51°21.533 2°59.037 66.2 14.6 64 13.9
2004-02-02 08:17:49 51°21.543 2°59.073 69.4 14.6 64 13.9
2004-02-02 08:17:53 51°21.551 2°59.097 67.8 15 64 13.7
2004-02-02 08:17:59 51°21.561 2°59.134 68.7 15.2 67 13.7
2004-02-02 08:18:03 51°21.569 2°59.157 66.5 14.8 63 13.8
2004-02-02 08:18:09 51°21.579 2°59.192 68.5 14.5 67 13.8
2004-02-02 08:18:13 51°21.585 2°59.216 70 14.9 66 13.7
2004-02-02 08:18:19 51°21.596 2°59.253 69.5 15.1 66 13.7
2004-02-02 08:18:23 51°21.603 2°59.277 68.2 15.1 64 13.7
2004-02-02 08:18:28 51°21.612 2°59.305 67.5 14.4 63 13.7
2004-02-02 08:18:33 51°21.621 2°59.335 68 14.4 63 13.6
2004-02-02 08:18:39 51°21.634 2°59.37 66 15.1 62 13.5
2004-02-02 08:18:43 51°21.641 2°59.394 65.1 15 64 13.5
2004-02-02 08:18:48 51°21.65 2°59.423 66.3 14.7 64 13.6
2004-02-02 08:18:53 51°21.658 2°59.452 68 14.4 66 13.6
2004-02-02 08:18:59 51°21.667 2°59.489 70.8 14.6 69 13.5
2004-02-02 08:19:03 51°21.673 2°59.514 72.2 15.2 68 13.5
2004-02-02 08:19:08 51°21.681 2°59.545 71.9 15.1 69 13.5
2004-02-02 08:19:13 51°21.688 2°59.576 74.2 14.7 71 13.5
2004-02-02 08:19:19 51°21.696 2°59.613 75.2 14.7 71 13.5
2004-02-02 08:19:23 51°21.702 2°59.639 74.8 15.2 70 13.5
2004-02-02 08:19:28 51°21.708 2°59.671 74.2 15.4 71 13.5
2004-02-02 08:19:33 51°21.716 2°59.701 72.7 14.9 69 13.6
2004-02-02 08:19:39 51°21.725 2°59.738 73.5 14.7 70 13.5
2004-02-02 08:19:43 51°21.731 2°59.762 73.2 14.8 68 13.4
2004-02-02 08:19:48 51°21.739 2°59.794 72.5 15.2 69 13.3
2004-02-02 08:19:53 51°21.747 2°59.825 72.3 15.4 68 13.3
2004-02-02 08:19:59 51°21.756 2°59.862 72 15.1 69 13.3
2004-02-02 08:20:04 51°21.763 2°59.894 73 14.9 70 13.4
2004-02-02 08:20:08 51°21.769 2°59.918 73 15 68 13.3
2004-02-02 08:20:13 51°21.776 2°59.949 72.5 15.1 69 13.3
2004-02-02 08:20:19 51°21.785 2°59.987 72.7 15 70 13.3
2004-02-02 08:20:24 51°21.791 3°0.018 74.7 14.8 71 13.3
2004-02-02 08:20:28 51°21.797 3°0.042 75 14.8 71 13.3
2004-02-02 08:20:33 51°21.803 3°0.074 75.7 14.9 73 13.3
2004-02-02 08:20:39 51°21.811 3°0.113 76 14.9 73 13.2
2004-02-02 08:20:43 51°21.815 3°0.14 77.1 15.5 74 13.3
2004-02-02 08:20:48 51°21.821 3°0.172 77.9 15.4 74 13.3
2004-02-02 08:20:53 51°21.825 3°0.205 80 15 76 13.3
2004-02-02 08:20:59 51°21.831 3°0.243 81.3 15 76 13.2
2004-02-02 08:21:04 51°21.834 3°0.276 82.5 15.2 79 13.1
2004-02-02 08:21:08 51°21.838 3°0.304 83.3 15.6 78 13
2004-02-02 08:21:13 51°21.843 3°0.338 82.7 15.7 79 13
2004-02-02 08:21:19 51°21.848 3°0.377 81.4 15.3 77 13.2
2004-02-02 08:21:23 51°21.851 3°0.403 82.6 15.1 79 13.2
2004-02-02 08:21:29 51°21.856 3°0.442 82.7 15 78 13.1
2004-02-02 08:21:33 51°21.859 3°0.469 84.4 15.2 81 13
2004-02-02 08:21:39 51°21.864 3°0.51 85.2 15.4 81 13
2004-02-02 08:21:43 51°21.867 3°0.537 83.4 15.6 78 13.1
2004-02-02 08:21:48 51°21.872 3°0.57 81.8 15.3 77 13.1
2004-02-02 08:21:53 51°21.877 3°0.602 81.1 15.1 78 13.1
2004-02-02 08:21:59 51°21.882 3°0.641 80.7 15 77 13.1
2004-02-02 08:22:04 51°21.887 3°0.675 82.3 15.4 78 13
2004-02-02 08:22:09 51°21.891 3°0.709 82.7 15.6 78 13
2004-02-02 08:22:13 51°21.896 3°0.736 81.2 15.7 75 13
2004-02-02 08:22:19 51°21.903 3°0.774 78.1 15.4 74 13
2004-02-02 08:22:23 51°21.906 3°0.8 78.8 14.7 77 13.1
2004-02-02 08:22:28 51°21.91 3°0.832 81.6 14.8 78 13
2004-02-02 08:22:33 51°21.914 3°0.867 83.8 15.4 80 12.9
2004-02-02 08:22:39 51°21.919 3°0.908 84.6 15.4 80 12.9
2004-02-02 08:22:44 51°21.923 3°0.941 83.7 15.4 78 12.9
2004-02-02 08:22:48 51°21.926 3°0.968 83.5 15.3 80 12.9
2004-02-02 08:22:53 51°21.93 3°1.001 82.8 15.4 78 12.9
2004-02-02 08:22:59 51°21.935 3°1.041 82.2 15.4 78 12.7
2004-02-02 08:23:03 51°21.939 3°1.068 83.3 15.2 78 12.5
2004-02-02 08:23:09 51°21.944 3°1.107 82.7 15.1 79 12.6
2004-02-02 08:23:13 51°21.948 3°1.133 82 15.2 75 13
2004-02-02 08:23:19 51°21.955 3°1.172 79.7 15.3 74 13
2004-02-02 08:23:24 51°21.963 3°1.204 76.8 15.5 70 13.1
2004-02-02 08:23:28 51°21.97 3°1.23 72.8 15.6 68 13
2004-02-02 08:23:33 51°21.979 3°1.26 69.6 15.4 65 13.2
2004-02-02 08:23:37 51°21.987 3°1.283 67.1 14.9 63 13.2
2004-02-02 08:23:43 51°21.999 3°1.319 66 15.2 62 13.1
2004-02-02 08:23:48 51°22.011 3°1.347 62.4 15.3 56 13.1
2004-02-02 08:23:53 51°22.021 3°1.375 60.1 14.8 59 13.2
2004-02-02 08:23:59 51°22.035 3°1.407 60.2 14.7 58 13.3
2004-02-02 08:24:03 51°22.044 3°1.43 60.1 15.1 58 13
2004-02-02 08:24:08 51°22.056 3°1.459 60.3 15.6 57 13
2004-02-02 08:24:13 51°22.069 3°1.486 57.5 15.6 57 13.1
2004-02-02 08:24:19 51°22.081 3°1.519 58.1 14.6 58 13.2
2004-02-02 08:24:23 51°22.091 3°1.54 60.1 14.7 55 13.1
2004-02-02 08:24:29 51°22.105 3°1.573 58.3 14.7 55 13.1
2004-02-02 08:24:33 51°22.116 3°1.593 55.8 14.9 52 13.3
2004-02-02 08:24:39 51°22.131 3°1.623 53.9 14.5 51 13.2
2004-02-02 08:24:43 51°22.142 3°1.642 52.4 14.9 47 13.1
2004-02-02 08:24:48 51°22.157 3°1.665 48.3 15.1 45 13
2004-02-02 08:24:53 51°22.172 3°1.688 46.4 14.5 44 13
2004-02-02 08:24:59 51°22.188 3°1.717 47.6 14.7 48 13.4
2004-02-02 08:25:04 51°22.203 3°1.74 48.6 15 44 13.4
2004-02-02 08:25:09 51°22.218 3°1.763 46.7 15 45 13.3
2004-02-02 08:25:13 51°22.23 3°1.781 46.6 15.1 43 13.1
2004-02-02 08:25:19 51°22.249 3°1.807 43.1 14.9 40 13.4
2004-02-02 08:25:23 51°22.261 3°1.826 44.4 14.9 45 13.6
2004-02-02 08:25:29 51°22.28 3°1.851 44.2 14.9 40 13.7
2004-02-02 08:25:33 51°22.291 3°1.871 44.7 15 44 13.4
2004-02-02 08:25:39 51°22.311 3°1.896 44.6 15.4 40 13.6
2004-02-02 08:25:44 51°22.327 3°1.917 41.7 15.1 39 13.4
2004-02-02 08:25:48 51°22.338 3°1.936 43.1 14.6 43 13.3
2004-02-02 08:25:53 51°22.355 3°1.957 43.5 15.2 40 13.2
2004-02-02 08:25:59 51°22.373 3°1.983 41.3 14.8 43 13.2
2004-02-02 08:26:03 51°22.385 3°2.001 45.2 14.7 43 12.9
2004-02-02 08:26:08 51°22.401 3°2.022 43.9 15 40 12.9
2004-02-02 08:26:13 51°22.416 3°2.044 42 14.6 42 12.9
2004-02-02 08:26:19 51°22.434 3°2.071 45.1 14.7 45 12.8
2004-02-02 08:26:24 51°22.449 3°2.093 44.5 14.9 41 12.5
2004-02-02 08:26:29 51°22.464 3°2.117 44.2 15 43 12.2
2004-02-02 08:26:33 51°22.476 3°2.135 45.3 15 44 11.2
2004-02-02 08:26:39 51°22.492 3°2.164 46.6 14.5 49 10.8
2004-02-02 08:26:44 51°22.507 3°2.188 50 15 45 12.4
2004-02-02 08:26:48 51°22.519 3°2.206 46.8 15.1 44 13.1
2004-02-02 08:26:53 51°22.533 3°2.229 46.1 14.9 45 13.2
2004-02-02 08:26:59 51°22.553 3°2.256 46.1 15.1 45 13.3
2004-02-02 08:27:03 51°22.566 3°2.273 42.7 15.1 40 13.4
2004-02-02 08:27:09 51°22.583 3°2.302 44.1 15 42 13.4
2004-02-02 08:27:13 51°22.596 3°2.319 45.4 15.4 42 13.3
2004-02-02 08:27:19 51°22.615 3°2.345 42 14.8 41 13.4
2004-02-02 08:27:24 51°22.629 3°2.369 44.5 14.7 46 13.1
2004-02-02 08:27:29 51°22.644 3°2.391 46.4 14.8 43 13.1
2004-02-02 08:27:33 51°22.656 3°2.408 44 14.6 42 13
2004-02-02 08:27:38 51°22.671 3°2.43 43.5 14.6 42 13.1
2004-02-02 08:27:44 51°22.689 3°2.457 44.4 14.8 44 13
2004-02-02 08:27:48 51°22.701 3°2.475 44.2 14.8 42 12.9
2004-02-02 08:27:53 51°22.716 3°2.499 46.3 14.9 45 12.6
2004-02-02 08:27:59 51°22.734 3°2.525 44.9 14.7 42 12.5
2004-02-02 08:28:04 51°22.747 3°2.549 46.9 14.7 46 12.2
2004-02-02 08:28:08 51°22.76 3°2.566 46.8 14.9 42 12.1
2004-02-02 08:28:13 51°22.775 3°2.589 44.3 14.9 43 12.1
2004-02-02 08:28:19 51°22.793 3°2.615 44.7 14.9 43 12.2
2004-02-02 08:28:24 51°22.808 3°2.637 43.8 14.8 42 12.3
2004-02-02 08:28:29 51°22.823 3°2.659 43.2 14.7 42 12.4
2004-02-02 08:28:33 51°22.835 3°2.677 44.4 14.8 44 12.5
2004-02-02 08:28:37 51°22.847 3°2.695 45.5 14.8 43 12.7
2004-02-02 08:28:43 51°22.864 3°2.722 45.4 14.7 44 13
2004-02-02 08:28:48 51°22.879 3°2.745 46.1 14.6 44 13.2
2004-02-02 08:28:53 51°22.894 3°2.767 45 14.8 43 13.3
2004-02-02 08:28:59 51°22.913 3°2.792 42.6 15 40 13.2
2004-02-02 08:29:03 51°22.924 3°2.811 43.4 14.6 47 13.1
2004-02-02 08:29:09 51°22.942 3°2.839 47.4 14.6 47 13.2
2004-02-02 08:29:13 51°22.955 3°2.856 44.9 15.1 40 13.7
2004-02-02 08:29:19 51°22.973 3°2.885 43.2 15.1 45 13.9
2004-02-02 08:29:23 51°22.986 3°2.902 44.2 15.4 40 14.1
2004-02-02 08:29:28 51°23.001 3°2.925 43.3 15.4 43 14.1
2004-02-02 08:29:33 51°23.017 3°2.948 45.2 15.1 42 14.1
2004-02-02 08:29:39 51°23.036 3°2.975 44.2 15.1 43 14.1
2004-02-02 08:29:43 51°23.047 3°2.995 45.7 15.4 46 14.1
2004-02-02 08:29:49 51°23.066 3°3.022 45.5 15.4 42 14.2
2004-02-02 08:29:53 51°23.077 3°3.042 46.3 14.9 48 14.2
2004-02-02 08:29:59 51°23.095 3°3.07 48.4 15 45 14.1
2004-02-02 08:30:04 51°23.11 3°3.093 46 15.1 42 14.2
2004-02-02 08:30:08 51°23.123 3°3.11 42.9 14.9 40 14.2
2004-02-02 08:30:13 51°23.138 3°3.133 44.5 14.9 40 14
2004-02-02 08:30:19 51°23.157 3°3.159 43.8 14.8 41 14
2004-02-02 08:30:24 51°23.171 3°3.183 44 15 45 13.8
2004-02-02 08:30:28 51°23.184 3°3.199 44.1 15 45 13.6
2004-02-02 08:30:33 51°23.199 3°3.222 42.6 14.8 42 13.3
2004-02-02 08:30:39 51°23.217 3°3.248 44.3 14.8 43 13.3
2004-02-02 08:30:43 51°23.229 3°3.267 44 14.8 45 12.8
2004-02-02 08:30:49 51°23.247 3°3.294 46.1 14.9 45 12.5
2004-02-02 08:30:53 51°23.259 3°3.312 44.4 14.7 44 12.4
2004-02-02 08:30:59 51°23.276 3°3.34 46.2 14.7 46 12.1
2004-02-02 08:31:03 51°23.288 3°3.358 45.5 14.8 43 12
2004-02-02 08:31:08 51°23.303 3°3.38 43.3 14.5 42 12
2004-02-02 08:31:13 51°23.316 3°3.403 46.1 14.4 44 12.1
2004-02-02 08:31:19 51°23.334 3°3.431 46.8 14.8 46 12.8
2004-02-02 08:31:24 51°23.349 3°3.454 44.3 15.1 44 13.6
2004-02-02 08:31:28 51°23.362 3°3.472 44.3 14.9 43 13.9
2004-02-02 08:31:33 51°23.376 3°3.496 45.7 15 45 13.9
2004-02-02 08:31:39 51°23.395 3°3.524 45.1 15 45 13.5
2004-02-02 08:31:43 51°23.406 3°3.543 45.2 15.1 45 13.3
2004-02-02 08:31:48 51°23.421 3°3.567 46.6 15.3 46 13.9
2004-02-02 08:31:53 51°23.437 3°3.591 45.1 15.3 43 14.4
2004-02-02 08:31:59 51°23.454 3°3.619 45.5 15 46 14.4
2004-02-02 08:32:04 51°23.468 3°3.643 47.2 15.1 47 14.3
2004-02-02 08:32:09 51°23.484 3°3.667 47.3 15.2 46 14.4
2004-02-02 08:32:13 51°23.495 3°3.686 45.9 15 45 14.6
2004-02-02 08:32:19 51°23.513 3°3.714 47.5 15 45 14.6
2004-02-02 08:32:23 51°23.525 3°3.732 44.7 14.9 46 14.7
2004-02-02 08:32:29 51°23.542 3°3.76 46.1 14.8 45 14.7
2004-02-02 08:32:33 51°23.554 3°3.779 45.8 15.2 44 14.7
2004-02-02 08:32:39 51°23.572 3°3.806 43.6 15 42 14.8
2004-02-02 08:32:43 51°23.583 3°3.825 44.8 14.8 47 14.7
2004-02-02 08:32:48 51°23.599 3°3.847 46.3 14.9 43 14.7
2004-02-02 08:32:53 51°23.613 3°3.87 44.2 14.7 42 14.7
2004-02-02 08:32:59 51°23.632 3°3.897 45.6 14.9 47 14.7
2004-02-02 08:33:04 51°23.646 3°3.92 42.9 14.8 47 14.7
2004-02-02 08:33:09 51°23.661 3°3.943 45.7 14.9 47 14.5
2004-02-02 08:33:14 51°23.676 3°3.966 45.3 15.2 44 14.5
2004-02-02 08:33:19 51°23.691 3°3.99 44.2 15.1 45 14.5
2004-02-02 08:33:23 51°23.704 3°4.008 45.3 15.1 43 14.5
2004-02-02 08:33:29 51°23.722 3°4.035 43.7 15.1 43 14.5
2004-02-02 08:33:33 51°23.734 3°4.054 43.9 15.1 45 14.5
2004-02-02 08:33:39 51°23.753 3°4.079 43.6 15.1 41 14.6
2004-02-02 08:33:43 51°23.764 3°4.099 43.3 15.1 46 14.7
2004-02-02 08:33:49 51°23.784 3°4.124 44 15 41 14.6
2004-02-02 08:33:53 51°23.795 3°4.144 43.4 14.8 46 14.7
2004-02-02 08:33:59 51°23.813 3°4.17 45.2 14.9 43 14.5
2004-02-02 08:34:04 51°23.83 3°4.189 40 15 36 14.4
2004-02-02 08:34:09 51°23.846 3°4.211 38.7 14.9 37 15
2004-02-02 08:34:13 51°23.86 3°4.225 36.8 14.9 36 15.3
2004-02-02 08:34:19 51°23.88 3°4.249 35.8 14.9 37 15.4
2004-02-02 08:34:23 51°23.894 3°4.263 35.1 14.9 34 15.4
2004-02-02 08:34:28 51°23.911 3°4.281 33.9 15 34 15.4
2004-02-02 08:34:33 51°23.928 3°4.299 32.6 15 32 15.5
2004-02-02 08:34:39 51°23.949 3°4.32 31.3 14.9 33 15.6
2004-02-02 08:34:43 51°23.963 3°4.335 33.3 14.9 33 15.6
2004-02-02 08:34:49 51°23.984 3°4.356 32.8 14.9 33 15.9
2004-02-02 08:34:53 51°23.998 3°4.37 31.7 14.9 32 16.1
2004-02-02 08:34:59 51°24.019 3°4.39 30.4 14.9 30 16.2
2004-02-02 08:35:03 51°24.033 3°4.405 31.8 15 33 16.3
2004-02-02 08:35:09 51°24.054 3°4.426 31.5 15 33 16.5
2004-02-02 08:35:13 51°24.068 3°4.441 32.4 14.8 35 16.9
2004-02-02 08:35:19 51°24.088 3°4.463 34.2 14.9 35 17.5
2004-02-02 08:35:24 51°24.106 3°4.481 32.4 14.9 31 18.5
2004-02-02 08:35:29 51°24.123 3°4.5 33.3 15 35 19.9
2004-02-02 08:35:33 51°24.137 3°4.514 34.2 15 33 20.3
2004-02-02 08:35:39 51°24.158 3°4.536 33.8 14.9 34 19.8
2004-02-02 08:35:43 51°24.172 3°4.55 32.6 14.6 34 20.2
2004-02-02 08:35:49 51°24.192 3°4.574 34.3 15 37 20.1
2004-02-02 08:35:53 51°24.207 3°4.585 31.3 14.6 30 20
2004-02-02 08:35:59 51°24.226 3°4.61 33.1 14.6 35 20
2004-02-02 08:36:04 51°24.244 3°4.624 33.5 14.6 27 20.2
2004-02-02 08:36:09 51°24.261 3°4.644 30.7 14.7 34 20.3
2004-02-02 08:36:13 51°24.275 3°4.656 33.6 14.8 30 20.2
2004-02-02 08:36:19 51°24.295 3°4.681 32.8 14.9 33 20.2
2004-02-02 08:36:23 51°24.31 3°4.693 34 14.9 30 20.2
2004-02-02 08:36:28 51°24.327 3°4.714 33.6 15.2 37 20.6
2004-02-02 08:36:33 51°24.345 3°4.729 32.8 15.2 37 20.3
2004-02-02 08:36:39 51°24.364 3°4.753 32.6 14.9 32 19.8
2004-02-02 08:36:44 51°24.382 3°4.771 34.6 14.9 34 19.1
2004-02-02 08:36:48 51°24.395 3°4.785 33.6 14.9 34 18.8
2004-02-02 08:36:53 51°24.411 3°4.805 34.1 14.5 34 18.4
2004-02-02 08:36:59 51°24.432 3°4.825 35.9 14.5 32 17.9
2004-02-02 08:37:04 51°24.448 3°4.845 33.3 14.5 31 17.6
2004-02-02 08:37:08 51°24.46 3°4.86 35.3 14.5 36 17.2
2004-02-02 08:37:13 51°24.477 3°4.878 35.7 14.5 35 16.7
2004-02-02 08:37:19 51°24.498 3°4.899 34.9 14.6 36 16.4
2004-02-02 08:37:23 51°24.511 3°4.914 34.4 14.7 35 16
2004-02-02 08:37:29 51°24.531 3°4.936 34.5 14.7 34 15.5
2004-02-02 08:37:33 51°24.545 3°4.951 34.2 14.5 34 15.2
2004-02-02 08:37:39 51°24.565 3°4.973 34.8 14.7 34 15.1
2004-02-02 08:37:43 51°24.579 3°4.988 33.9 14.8 34 15
2004-02-02 08:37:49 51°24.599 3°5.01 34.3 14.9 35 14.8
2004-02-02 08:37:53 51°24.613 3°5.023 32.2 15 33 14.9
2004-02-02 08:37:59 51°24.633 3°5.046 33.5 14.5 34 14.7
2004-02-02 08:38:03 51°24.647 3°5.06 34.9 15 32 14.5
2004-02-02 08:38:08 51°24.665 3°5.079 32.6 15.2 34 14.6
2004-02-02 08:38:13 51°24.683 3°5.095 32.4 14.7 30 14.6
2004-02-02 08:38:19 51°24.702 3°5.119 33.2 14.6 34 14.6
2004-02-02 08:38:24 51°24.721 3°5.135 33.8 15 30 14.7
2004-02-02 08:38:29 51°24.738 3°5.153 31.5 14.8 32 14.7
2004-02-02 08:38:33 51°24.751 3°5.168 34.1 14.8 32 14.8
2004-02-02 08:38:39 51°24.771 3°5.191 35.2 15 36 14.8
2004-02-02 08:38:44 51°24.788 3°5.21 35.2 14.6 35 15
2004-02-02 08:38:49 51°24.804 3°5.229 36.2 14.7 36 15
2004-02-02 08:38:53 51°24.818 3°5.245 36.3 15.3 35 14.8
2004-02-02 08:38:59 51°24.839 3°5.266 34.1 15.1 33 14.9
2004-02-02 08:39:03 51°24.852 3°5.282 35.1 14.6 36 14.7
2004-02-02 08:39:08 51°24.869 3°5.301 35.8 15 35 14.7
2004-02-02 08:39:13 51°24.886 3°5.319 33.9 15.1 34 14.7
2004-02-02 08:39:19 51°24.906 3°5.341 33.8 14.7 33 14.3
2004-02-02 08:39:23 51°24.921 3°5.355 33.7 14.7 32 14.5
2004-02-02 08:39:29 51°24.942 3°5.376 32.6 14.7 32 14.5
2004-02-02 08:39:33 51°24.955 3°5.391 32.5 14.8 33 14.4
2004-02-02 08:39:39 51°24.976 3°5.411 32 14.9 33 14.3
2004-02-02 08:39:43 51°24.99 3°5.426 31.7 14.8 33 14.3
2004-02-02 08:39:49 51°25.011 3°5.447 33.1 14.7 35 14.1
2004-02-02 08:39:53 51°25.024 3°5.463 34.1 14.7 35 14.1
2004-02-02 08:39:59 51°25.044 3°5.484 33.6 14.8 33 14.2
2004-02-02 08:40:03 51°25.058 3°5.5 34.2 15 35 14
2004-02-02 08:40:08 51°25.076 3°5.515 32 14.7 30 14.1
2004-02-02 08:40:13 51°25.093 3°5.535 33.1 15.1 36 14
2004-02-02 08:40:19 51°25.114 3°5.556 33.3 15 31 13.8
2004-02-02 08:40:24 51°25.131 3°5.574 32.4 14.7 34 13.7
2004-02-02 08:40:28 51°25.145 3°5.588 33.4 14.9 32 13.4
2004-02-02 08:40:33 51°25.163 3°5.606 32 15 32 13.5
2004-02-02 08:40:39 51°25.184 3°5.626 31.2 14.9 31 13.5
2004-02-02 08:40:44 51°25.201 3°5.645 31.9 14.9 33 13.5
2004-02-02 08:40:48 51°25.216 3°5.658 31.6 15.2 31 13.4
2004-02-02 08:40:53 51°25.233 3°5.676 30.3 14.7 33 13.3
2004-02-02 08:40:59 51°25.253 3°5.698 34 14.6 36 13.2
2004-02-02 08:41:04 51°25.272 3°5.716 34.4 15.6 31 13.1
2004-02-02 08:41:09 51°25.29 3°5.731 29 15.3 28 13.1
2004-02-02 08:41:13 51°25.304 3°5.745 28.6 14.4 31 13.1
2004-02-02 08:41:19 51°25.325 3°5.766 31.9 15 33 13
2004-02-02 08:41:23 51°25.341 3°5.778 29.2 15.4 27 12.9
2004-02-02 08:41:29 51°25.362 3°5.798 28.3 15 30 12.9
2004-02-02 08:41:33 51°25.376 3°5.811 29.5 14.7 30 12.9
2004-02-02 08:41:39 51°25.398 3°5.832 31.2 14.9 32 12.9
2004-02-02 08:41:44 51°25.415 3°5.85 30.6 15 30 12.8
2004-02-02 08:41:49 51°25.433 3°5.868 32.4 15.2 33 12.7
2004-02-02 08:41:53 51°25.447 3°5.883 33 15.2 33 12.7
2004-02-02 08:41:59 51°25.468 3°5.904 32.5 15.1 33 12.7
2004-02-02 08:42:03 51°25.482 3°5.919 31.9 15.1 34 12.6
2004-02-02 08:42:09 51°25.503 3°5.941 33 15.5 33 12.5
2004-02-02 08:42:14 51°25.521 3°5.961 31.9 14.9 36 12.4
2004-02-02 08:42:19 51°25.535 3°5.984 36.1 14.7 44 12.3
2004-02-02 08:42:23 51°25.547 3°6.003 44.2 15.3 43 12.2
2004-02-02 08:42:29 51°25.565 3°6.033 44.7 15.7 45 12.2
2004-02-02 08:42:33 51°25.576 3°6.052 46.1 15.2 47 12.3
2004-02-02 08:42:39 51°25.591 3°6.083 50.4 14.8 51 12.3
2004-02-02 08:42:44 51°25.604 3°6.109 52.9 14.8 54 12.2
2004-02-02 08:42:49 51°25.617 3°6.137 55 15.4 53 12.1
2004-02-02 08:42:53 51°25.628 3°6.159 54.1 15.9 51 12.1
2004-02-02 08:42:59 51°25.644 3°6.192 52.5 15.7 51 12
2004-02-02 08:43:03 51°25.655 3°6.213 52.1 15.2 52 12.2
2004-02-02 08:43:09 51°25.669 3°6.244 53.1 15 53 12.2
2004-02-02 08:43:13 51°25.679 3°6.266 54.6 14.8 56 12.2
2004-02-02 08:43:19 51°25.694 3°6.298 56.4 14.9 55 12.2
2004-02-02 08:43:24 51°25.706 3°6.326 56.1 15.4 54 12.1
2004-02-02 08:43:28 51°25.717 3°6.348 54.9 15.5 54 12
2004-02-02 08:43:33 51°25.731 3°6.375 52.8 15.6 50 11.9
2004-02-02 08:43:39 51°25.746 3°6.406 51.9 15.3 51 12
2004-02-02 08:43:43 51°25.757 3°6.427 51.7 14.9 52 12
2004-02-02 08:43:48 51°25.769 3°6.453 53.3 14.7 54 12
2004-02-02 08:43:53 51°25.782 3°6.479 55.2 14.8 54 11.9
2004-02-02 08:43:59 51°25.797 3°6.511 55.1 15.1 53 11.8
2004-02-02 08:44:04 51°25.81 3°6.538 54 15.2 52 11.8
2004-02-02 08:44:09 51°25.823 3°6.564 52.9 15.1 51 11.8
2004-02-02 08:44:13 51°25.834 3°6.584 51.4 14.7 51 11.8
2004-02-02 08:44:19 51°25.848 3°6.615 52.4 14.6 52 11.8
2004-02-02 08:44:23 51°25.858 3°6.637 55.4 15.2 53 11.8
2004-02-02 08:44:29 51°25.873 3°6.67 54.8 15.2 53 11.8
2004-02-02 08:44:33 51°25.883 3°6.692 56.6 15 55 12
2004-02-02 08:44:39 51°25.897 3°6.724 56.2 14.9 54 12.1
2004-02-02 08:44:43 51°25.907 3°6.744 55.2 14.8 53 12
2004-02-02 08:44:49 51°25.922 3°6.776 55.1 14.8 53 12
2004-02-02 08:44:53 51°25.933 3°6.796 53.1 14.8 52 12.1
2004-02-02 08:44:59 51°25.947 3°6.829 54.7 14.9 55 12
2004-02-02 08:45:04 51°25.961 3°6.855 53.9 15.6 51 11.9
2004-02-02 08:45:08 51°25.972 3°6.877 52.5 15.6 52 12
2004-02-02 08:45:13 51°25.984 3°6.905 54.3 15.3 55 12
2004-02-02 08:45:19 51°25.998 3°6.938 57.2 14.9 56 12.1
2004-02-02 08:45:23 51°26.005 3°6.961 60.9 15 60 12.1
2004-02-02 08:45:28 51°26.016 3°6.989 61.1 14.9 57 12.1
2004-02-02 08:45:33 51°26.026 3°7.017 60.6 14.7 60 12
2004-02-02 08:45:39 51°26.039 3°7.052 62.1 15 60 12
2004-02-02 08:45:44 51°26.051 3°7.08 61 15.2 58 12
2004-02-02 08:45:48 51°26.06 3°7.103 59.5 14.9 57 12
2004-02-02 08:45:53 51°26.071 3°7.13 58.9 14.8 57 11.9
2004-02-02 08:45:59 51°26.084 3°7.163 59 14.8 57 11.7
2004-02-02 08:46:03 51°26.092 3°7.186 60.2 14.7 61 11.5
2004-02-02 08:46:09 51°26.105 3°7.22 62.1 14.9 59 11.3
2004-02-02 08:46:13 51°26.114 3°7.242 60.7 15 57 11.1
2004-02-02 08:46:19 51°26.128 3°7.276 59.5 15 57 10.7
2004-02-02 08:46:23 51°26.137 3°7.299 59 15.2 58 10.4
2004-02-02 08:46:28 51°26.149 3°7.327 58.9 15.2 56 10.3
2004-02-02 08:46:33 51°26.16 3°7.355 58.8 14.9 58 10.2
2004-02-02 08:46:39 51°26.173 3°7.387 58.9 14.5 58 10.2
2004-02-02 08:46:44 51°26.183 3°7.416 60.8 14.6 61 10.1
2004-02-02 08:46:48 51°26.191 3°7.439 62.9 15.1 60 10.2